Latest Weather Observations for Christmas Creek

IDW60801

Issued at 2:02 am WST Friday 30 January 2015 (issued every 30 minutes, with the page automatically refreshed every 10 minutes)

About weather observations | Map of weather stations | Latest weather observations for WA | Other Formats
Station Details ID: 505049 Name: CHRISTMAS CREEK Lat: -22.36 Lon: 119.65 Height: 437.21 m
Data from the previous 72 hours. | See also: Recent months for locations in Western Australia
Date/Time
WST
Temp
°C
App
Temp
°C
Dew
Point
Rel
Hum
%
Delta-T
°C
Wind Press
QNH
hPa
Press
MSL
hPa
Rain
since 9 am
mm
Dir
 
Spd
km/h
Gust
km/h
Spd
kts
Gust
kts
30/02:00am 25.2 24.7 17.7 63 4.8 S 17 22 9 12 1008.9 1005.1 0.0
30/01:30am 25.2 23.2 17.5 62 4.9 SSE 24 33 13 18 1008.3 1004.6 0.0
30/01:13am 26.2 26.2 17.2 57 5.7 SE 13 39 7 21 1008.0 1004.3 0.0
30/01:00am 26.5 27.2 16.0 52 6.6 S 7 17 4 9 1007.1 1003.4 0.0
30/12:30am 26.4 24.8 16.5 54 6.2 N 20 24 11 13 1006.6 1002.8 0.0
30/12:00am 26.2 24.6 16.0 53 6.4 N 19 26 10 14 1007.0 1003.2 0.0
 
Date/Time
WST
Temp
°C
App
Temp
°C
Dew
Point
Rel
Hum
%
Delta-T
°C
Wind Press
QNH
hPa
Press
MSL
hPa
Rain
since 9 am
mm
Dir
 
Spd
km/h
Gust
km/h
Spd
kts
Gust
kts
29/11:30pm 25.1 25.7 16.8 60 5.2 N 9 13 5 7 1007.7 1004.0 0.0
29/11:00pm 24.2 23.5 17.4 65 4.3 W 17 24 9 13 1009.2 1005.5 0.0
29/10:30pm 24.8 22.6 17.9 65 4.4 W 26 41 14 22 1010.5 1006.8 0.0
29/10:00pm 26.3 23.8 18.0 60 5.3 WSW 28 44 15 24 1011.0 1007.2 0.0
29/09:37pm 27.3 24.1 17.3 54 6.4 WSW 30 48 16 26 1011.0 1007.2 0.0
29/09:30pm 27.5 24.0 17.5 54 6.4 WSW 32 48 17 26 1010.7 1007.0 0.0
29/09:20pm 27.4 26.3 17.8 55 6.2 WSW 20 48 11 26 1010.6 1006.9 0.0
29/09:00pm 27.3 28.4 18.1 57 6.0 SE 9 13 5 7 1009.1 1005.3 0.0
29/08:30pm 27.2 26.4 18.1 57 5.9 SE 19 24 10 13 1008.7 1004.9 0.0
29/08:00pm 29.2 27.5 14.7 41 9.0 ESE 17 22 9 12 1008.7 1004.9 0.0
29/07:30pm 28.9 27.8 15.3 43 8.5 ESE 15 22 8 12 1008.0 1004.3 0.0
29/07:00pm 28.4 27.2 16.0 47 7.8 ESE 17 24 9 13 1008.0 1004.3 0.0
29/06:30pm 27.7 24.7 16.8 51 6.9 ESE 28 39 15 21 1008.0 1004.3 0.0
29/06:04pm 28.0 23.7 16.9 51 7.1 ESE 35 54 19 29 1007.6 1003.9 0.0
29/06:00pm 27.8 22.7 16.7 50 7.0 ESE 39 54 21 29 1007.5 1003.8 0.0
29/05:30pm 28.7 25.4 17.9 52 7.0 ESE 32 46 17 25 1007.0 1003.2 0.0
29/05:09pm 29.6 24.4 16.5 45 8.3 SE 39 57 21 31 1006.8 1003.0 0.0
29/05:00pm 29.6 25.1 16.3 44 8.4 SSE 35 57 19 31 1006.4 1002.6 0.0
29/04:58pm 30.8 27.0 16.6 42 9.1 S 32 54 17 29 1006.4 1002.6 0.0
29/04:32pm 31.6 26.5 13.8 34 10.9 SSW 33 52 18 28 1005.2 1001.5 0.0
29/04:30pm 31.3 25.3 13.4 33 10.9 SSW 37 56 20 30 1005.4 1001.7 0.0
29/04:17pm 31.7 26.7 14.1 34 10.9 SSW 33 59 18 32 1005.5 1001.8 0.0
29/04:16pm 31.7 26.9 14.1 34 10.9 SW 32 59 17 32 1005.4 1001.7 0.0
29/04:11pm 36.7 34.2 13.6 25 14.4 WSW 19 50 10 27 1005.3 1001.6 0.0
29/04:00pm 38.0 35.2 13.1 22 15.6 NW 20 33 11 18 1003.9 1000.1 0.0
29/03:30pm 38.5 36.3 13.2 22 15.8 NW 17 32 9 17 1004.1 1000.3 0.0
29/03:00pm 38.5 35.8 13.5 22 15.7 NW 20 33 11 18 1004.2 1000.4 0.0
29/02:30pm 38.4 36.7 13.6 23 15.6 WNW 15 30 8 16 1004.4 1000.6 0.0
29/02:00pm 37.5 36.1 14.4 25 14.7 W 15 30 8 16 1005.2 1001.5 0.0
29/01:30pm 37.1 35.2 14.2 25 14.4 NW 17 33 9 18 1005.9 1002.2 0.0
29/01:00pm 36.5 35.0 15.4 28 13.5 NNW 17 32 9 17 1006.3 1002.5 0.0
29/12:30pm 36.0 34.7 15.8 30 13.0 NW 17 33 9 18 1006.7 1002.9 0.0
29/12:00pm 36.3 34.2 15.3 28 13.4 NW 20 30 11 16 1007.4 1003.7 0.0
29/11:30am 35.9 33.7 15.9 30 12.9 NNW 22 33 12 18 1007.7 1004.0 0.0
29/11:00am 35.7 34.0 15.8 30 12.8 NW 19 30 10 16 1008.1 1004.4 0.0
29/10:30am 34.4 33.4 17.6 37 11.0 NW 19 28 10 15 1008.5 1004.7 0.0
29/10:00am 32.7 32.9 18.5 43 9.4 NNW 15 26 8 14 1008.9 1005.1 0.0
29/09:30am 30.8 31.6 19.0 49 7.8 NNE 13 20 7 11 1009.3 1005.6 0.0
29/09:00am 30.0 31.3 19.4 53 7.0 NNE 11 19 6 10 1009.6 1005.9 0.0
29/08:30am 29.1 31.4 19.8 57 6.2 NNE 7 15 4 8 1009.7 1006.0 0.0
29/08:00am 28.1 30.2 20.1 62 5.3 NE 9 20 5 11 1009.7 1006.0 0.0
29/07:30am 27.3 29.4 20.2 65 4.7 E 9 13 5 7 1009.7 1006.0 0.0
29/07:00am 26.7 28.0 19.2 63 4.9 ESE 11 15 6 8 1009.7 1006.0 0.0
29/06:30am 26.5 28.7 19.1 64 4.8 ESE 6 9 3 5 1009.3 1005.6 0.0
29/06:00am 26.0 27.8 18.7 64 4.7 NE 7 9 4 5 1008.9 1005.1 0.0
29/05:30am 26.2 28.2 18.7 63 4.9 NNE 6 7 3 4 1008.1 1004.4 0.0
29/05:00am 26.2 27.6 18.7 63 4.9 NNW 9 11 5 6 1007.9 1004.2 0.0
29/04:30am 26.5 27.9 18.6 62 5.1 NNE 9 13 5 7 1007.9 1004.2 0.0
29/04:00am 26.5 28.2 18.6 62 5.1 ENE 7 7 4 4 1008.2 1004.5 0.0
29/03:30am 26.5 28.4 18.6 62 5.1 NE 6 11 3 6 1008.0 1004.3 0.0
29/03:00am 26.5 27.8 18.4 61 5.3 N 9 17 5 9 1007.6 1003.9 0.0
29/02:30am 26.7 26.7 18.2 59 5.5 NW 15 20 8 11 1007.0 1003.2 0.0
29/02:00am 27.0 27.1 18.3 59 5.6 NW 15 20 8 11 1007.1 1003.4 0.0
29/01:30am 27.3 26.4 18.3 58 5.8 NNW 20 26 11 14 1007.0 1003.2 0.0
29/01:00am 27.8 27.0 18.4 56 6.1 NNW 20 28 11 15 1006.9 1003.1 0.0
29/12:30am 28.3 28.2 18.7 56 6.3 NNW 17 24 9 13 1007.0 1003.2 0.0
29/12:00am 28.8 28.7 18.7 54 6.6 N 17 22 9 12 1007.2 1003.5 0.0
 
Date/Time
WST
Temp
°C
App
Temp
°C
Dew
Point
Rel
Hum
%
Delta-T
°C
Wind Press
QNH
hPa
Press
MSL
hPa
Rain
since 9 am
mm
Dir
 
Spd
km/h
Gust
km/h
Spd
kts
Gust
kts
28/11:30pm 29.6 28.3 19.0 53 7.0 NW 24 32 13 17 1007.2 1003.5 0.0
28/11:00pm 30.2 29.4 19.2 51 7.3 NW 22 32 12 17 1007.3 1003.6 0.0
28/10:30pm 31.0 30.8 19.3 49 7.8 NNW 19 26 10 14 1007.3 1003.6 0.0
28/10:00pm 31.8 30.2 15.0 36 10.5 NE 17 24 9 13 1007.2 1003.5 0.0
28/09:30pm 31.7 31.0 14.2 34 10.8 E 11 13 6 7 1006.9 1003.1 0.0
28/09:00pm 31.5 29.8 14.7 36 10.5 ESE 17 26 9 14 1007.1 1003.4 0.0
28/08:30pm 30.7 30.1 16.7 43 9.0 SE 15 26 8 14 1007.0 1003.2 0.0
28/08:00pm 31.7 31.4 16.5 40 9.7 SSE 13 20 7 11 1006.8 1003.0 0.0
28/07:30pm 35.3 34.3 14.5 28 13.1 NNW 13 19 7 10 1005.7 1002.0 0.0
28/07:00pm 35.7 34.1 14.0 27 13.6 N 15 20 8 11 1005.1 1001.4 0.0
28/06:30pm 36.1 33.5 13.7 26 14.0 NNW 20 28 11 15 1004.7 1000.9 0.0
28/06:00pm 36.6 34.0 13.8 25 14.3 NNW 20 30 11 16 1004.2 1000.4 0.0
28/05:30pm 37.1 34.6 13.6 24 14.7 NNW 19 28 10 15 1004.1 1000.3 0.0
28/05:00pm 37.8 35.4 13.7 23 15.2 NNW 19 32 10 17 1003.9 1000.1 0.0
28/04:30pm 38.0 35.3 13.4 23 15.4 NW 20 30 11 16 1004.1 1000.3 0.0
28/04:00pm 38.1 35.8 13.1 22 15.6 NNW 17 28 9 15 1004.4 1000.6 0.0
28/03:30pm 38.1 36.6 13.2 22 15.5 WNW 13 26 7 14 1004.7 1000.9 0.0
28/03:00pm 37.5 36.8 14.3 25 14.7 NW 11 22 6 12 1005.1 1001.4 0.0
28/02:30pm 36.8 36.2 14.7 26 14.0 NNE 11 19 6 10 1005.4 1001.7 0.0
28/02:00pm 36.8 36.2 14.7 26 14.1 N 11 24 6 13 1005.7 1002.0 0.0
28/01:30pm 36.1 35.0 14.3 27 13.7 NNW 13 26 7 14 1006.2 1002.4 0.0
28/01:00pm 36.2 36.0 15.7 29 13.2 NW 11 28 6 15 1006.6 1002.8 0.0
28/12:30pm 35.4 35.3 15.9 31 12.5 WNW 11 24 6 13 1007.0 1003.2 0.0
28/12:00pm 34.5 34.5 16.3 33 11.7 NW 11 28 6 15 1007.3 1003.6 0.0
28/11:30am 34.0 34.9 16.5 35 11.3 NW 7 20 4 11 1007.8 1004.1 0.0
28/11:00am 33.0 32.7 16.4 37 10.7 NNW 13 22 7 12 1008.3 1004.6 0.0
28/10:30am 31.3 32.0 16.1 40 9.7 N 7 17 4 9 1008.9 1005.1 0.0
28/10:00am 31.4 32.7 16.1 39 9.7 NW 4 11 2 6 1009.3 1005.6 0.0
28/09:30am 30.2 30.9 16.0 42 9.0 NE 7 17 4 9 1009.5 1005.8 0.0
28/09:00am 29.3 30.1 15.9 44 8.4 NNE 6 15 3 8 1009.7 1006.0 0.0
28/08:30am 28.6 29.8 16.0 46 7.9 SE 4 7 2 4 1009.6 1005.9 0.0
28/08:00am 27.7 28.3 15.3 46 7.7 NNE 6 9 3 5 1009.7 1006.0 0.0
28/07:30am 27.1 27.7 15.3 48 7.3 ESE 6 11 3 6 1009.7 1006.0 0.0
28/07:00am 26.7 27.8 15.5 50 7.0 NE 4 9 2 5 1009.6 1005.9 0.0
28/06:30am 26.2 26.9 15.6 52 6.6 N 6 13 3 7 1009.3 1005.6 0.0
28/06:00am 25.7 25.5 15.7 54 6.2 NNW 11 15 6 8 1008.9 1005.1 0.0
28/05:30am 26.0 24.8 15.1 51 6.7 NNW 15 20 8 11 1008.0 1004.3 0.0
28/05:00am 26.4 24.9 15.4 50 6.8 NNW 17 20 9 11 1007.6 1003.9 0.0
28/04:30am 26.3 25.6 15.3 50 6.8 NNW 13 19 7 10 1007.3 1003.6 0.0
28/04:00am 26.5 25.6 15.9 52 6.6 NNW 15 22 8 12 1007.3 1003.6 0.0
28/03:30am 26.7 26.1 15.7 51 6.8 NNW 13 20 7 11 1007.2 1003.5 0.0
28/03:00am 27.0 26.0 15.5 49 7.2 NNW 15 19 8 10 1007.1 1003.4 0.0
28/02:30am 27.3 25.1 14.5 45 7.8 N 19 24 10 13 1007.0 1003.2 0.0
28/02:00am 27.5 25.7 14.5 45 8.0 N 17 20 9 11 1007.3 1003.6 0.0
28/01:30am 27.6 26.9 14.3 44 8.1 NNE 11 17 6 9 1007.6 1003.9 0.0
28/01:00am 28.0 26.0 13.8 41 8.6 N 17 22 9 12 1007.6 1003.9 0.0
28/12:30am 28.3 26.3 15.0 44 8.2 N 19 24 10 13 1007.9 1004.2 0.0
28/12:00am 28.8 28.0 16.0 45 8.1 N 15 19 8 10 1008.0 1004.3 0.0
 
Date/Time
WST
Temp
°C
App
Temp
°C
Dew
Point
Rel
Hum
%
Delta-T
°C
Wind Press
QNH
hPa
Press
MSL
hPa
Rain
since 9 am
mm
Dir
 
Spd
km/h
Gust
km/h
Spd
kts
Gust
kts
27/11:30pm 29.1 27.8 15.9 44 8.3 N 17 22 9 12 1008.2 1004.5 0.0
27/11:00pm 29.6 27.8 16.0 43 8.6 NNW 20 26 11 14 1008.2 1004.5 0.0
27/10:30pm 30.6 29.3 16.9 43 8.8 NW 19 26 10 14 1008.0 1004.3 0.0
27/10:00pm 31.3 28.7 16.9 42 9.3 NW 26 37 14 20 1007.4 1003.7 0.0
27/09:51pm 31.7 29.4 16.7 40 9.6 NW 24 37 13 20 1007.2 1003.5 0.0
27/09:30pm 32.9 32.2 14.4 32 11.5 NNW 11 15 6 8 1006.7 1002.9 0.0
27/09:00pm 33.7 32.7 14.5 31 12.0 NW 13 19 7 10 1006.5 1002.7 0.0
27/08:30pm 34.0 32.4 14.9 31 12.0 NNW 17 20 9 11 1006.1 1002.3 0.0
27/08:00pm 34.3 33.5 15.2 31 12.1 NNW 13 17 7 9 1006.3 1002.5 0.0
27/07:30pm 34.8 33.8 15.5 31 12.3 NNW 15 19 8 10 1006.1 1002.3 0.0
27/07:00pm 35.4 34.4 15.7 31 12.6 NNW 15 22 8 12 1005.7 1002.0 0.0
27/06:30pm 36.0 34.5 15.4 29 13.2 NNW 17 26 9 14 1005.2 1001.5 0.0
27/06:00pm 36.4 34.7 15.7 29 13.3 NW 19 26 10 14 1004.8 1001.0 0.0
27/05:30pm 37.1 36.4 15.5 27 13.9 NW 13 24 7 13 1004.7 1000.9 0.0
27/05:00pm 37.1 36.1 15.5 27 13.9 NW 15 22 8 12 1004.6 1000.8 0.0
27/04:30pm 36.8 37.1 16.0 29 13.4 WNW 9 19 5 10 1004.8 1001.0 0.0
27/04:00pm 36.4 36.8 16.4 30 13.0 NE 9 24 5 13 1004.9 1001.1 0.0
27/03:30pm 36.0 35.6 16.2 31 12.8 NNE 13 26 7 14 1005.3 1001.6 0.0
27/03:00pm 36.5 36.8 16.1 29 13.2 NW 9 24 5 13 1005.6 1001.9 0.0
27/02:30pm 36.5 36.4 17.0 31 12.7 NNE 13 20 7 11 1006.1 1002.3 0.0
27/02:00pm 36.0 36.1 16.6 31 12.6 NNW 11 24 6 13 1006.3 1002.5 0.0
27/01:30pm 35.4 35.3 16.9 33 12.0 NNW 13 24 7 13 1006.7 1002.9 0.0
27/01:00pm 34.8 35.4 16.9 34 11.7 NW 9 20 5 11 1007.1 1003.4 0.0
27/12:30pm 33.6 32.2 17.0 37 10.8 N 20 32 11 17 1007.7 1004.0 0.0
27/12:00pm 33.8 33.6 17.5 38 10.7 NNW 15 33 8 18 1008.2 1004.5 0.0
27/11:30am 31.9 31.7 17.5 42 9.3 N 15 32 8 17 1008.9 1005.1 0.0
27/11:00am 32.2 31.3 17.8 42 9.4 N 19 43 10 23 1009.2 1005.5 0.0
27/10:30am 31.0 30.1 17.7 45 8.6 NNE 19 32 10 17 1009.5 1005.8 0.0
27/10:00am 31.2 30.4 18.0 45 8.6 NNE 19 33 10 18 1010.0 1006.3 0.0
27/09:30am 29.6 28.8 18.5 51 7.3 NE 20 35 11 19 1010.2 1006.5 0.0
27/09:00am 28.6 26.3 18.5 54 6.6 NE 28 37 15 20 1010.4 1006.7 0.0
27/08:30am 28.1 26.4 18.2 55 6.4 NE 24 32 13 17 1010.7 1007.0 0.0
27/08:00am 27.1 26.4 18.6 59 5.5 ENE 20 26 11 14 1011.0 1007.2 0.0
27/07:30am 25.6 25.2 18.9 66 4.4 E 19 26 10 14 1011.1 1007.3 0.0
27/07:00am 24.7 24.0 18.6 69 3.9 E 20 30 11 16 1011.1 1007.3 0.0
27/06:30am 24.0 23.5 19.2 74 3.1 E 20 30 11 16 1010.9 1007.1 0.0
27/06:00am 24.0 23.1 19.1 74 3.2 E 22 32 12 17 1010.6 1006.9 0.0
27/05:30am 24.1 22.3 19.6 76 2.9 SE 28 39 15 21 1010.5 1006.8 0.0
27/05:00am 24.7 24.5 19.7 73 3.3 SSE 20 30 11 16 1010.4 1006.7 0.0
27/04:30am 25.1 27.6 19.1 69 3.9 SE 4 15 2 8 1010.3 1006.6 0.0
27/04:00am 24.9 27.0 18.9 69 3.9 ENE 6 7 3 4 1009.9 1006.2 0.0
27/03:30am 25.0 27.1 18.9 69 4.0 E 6 11 3 6 1009.4 1005.7 0.0
27/03:00am 24.9 25.9 18.7 68 4.0 SE 11 15 6 8 1009.5 1005.8 0.0
27/02:30am 25.0 25.6 18.6 67 4.1 SSE 13 19 7 10 1009.3 1005.6 0.0

Other Formats:

Comma delimited format used in spreadsheet applications
http://www.bom.gov.au/fwo/IDW60801/IDW60801.99737.axf

JavaScript Object Notation format (JSON) in row-major order
http://www.bom.gov.au/fwo/IDW60801/IDW60801.99737.json